Observations for LONDON GATWICK ARPT, United Kingdom (EGKK)

EGKK 221420Z 01010G20KT 350V100 CAVOK 13/03 Q1036   
EGKK 221350Z 02008KT 330V060 CAVOK 13/04 Q1037  
EGKK 221320Z 01010G22KT 340V070 CAVOK 13/03 Q1037   
EGKK 221250Z 02012KT CAVOK 13/03 Q1037  
EGKK 221220Z 01012KT CAVOK 13/03 Q1037  
EGKK 221150Z 03011KT CAVOK 12/04 Q1037  
EGKK 221120Z 01009G19KT 340V110 CAVOK 12/04 Q1037   
EGKK 221050Z 04013KT CAVOK 12/03 Q1037  
EGKK 221020Z 02012KT 360V060 CAVOK 12/03 Q1036  
EGKK 220950Z 02014KT CAVOK 11/03 Q1036  
EGKK 220920Z 03013KT 350V070 CAVOK 10/03 Q1037  
EGKK 220850Z 02012KT CAVOK 10/04 Q1037  
EGKK 220820Z 02009KT CAVOK 09/04 Q1036  
EGKK 220750Z 02007KT CAVOK 09/04 Q1036  
EGKK 220720Z 03006KT 340V100 CAVOK 08/03 Q1036  
EGKK 220650Z 01008KT CAVOK 08/03 Q1035  
EGKK 220620Z 01008KT CAVOK 08/03 Q1035  
EGKK 220550Z 01009KT 340V060 CAVOK 08/03 Q1034  
EGKK 220520Z 01009KT CAVOK 08/03 Q1034  
EGKK 220450Z 01010KT CAVOK 09/03 Q1034  
EGKK 220420Z 01008KT 9999 SCT031 09/04 Q1033
EGKK 220350Z 02011KT 9999 FEW024 BKN032 10/05 Q1033 
EGKK 220320Z 01011KT 9999 SCT021 BKN027 11/07 Q1032 
EGKK 220250Z 36012KT 9999 SCT020 BKN032 12/08 Q1032 
EGKK 220220Z 02010KT 9999 FEW025 BKN030 12/07 Q1032 
EGKK 220150Z 01010KT 9999 BKN027 12/08 Q1032
EGKK 220120Z 01009KT 9999 SCT027 BKN041 12/09 Q1031 
EGKK 220050Z 36008KT 9999 BKN030 12/09 Q1031
EGKK 220020Z 36007KT 9999 BKN025 12/10 Q1031
EGKK 212350Z 36009KT 9999 BKN010 12/10 Q1031
EGKK 212320Z 34011KT 9000 SCT007 BKN010 12/11 Q1030 
EGKK 212250Z 35010KT 8000 BKN008 14/12 Q1030
EGKK 212220Z 33013KT 9999 BKN016 15/13 Q1029
EGKK 212150Z 34010KT 9999 BKN020 16/12 Q1029
EGKK 212120Z 34008KT 9999 BKN022 16/12 Q1028
EGKK 212050Z 33008KT 300V360 9999 BKN025 16/12 Q1028
EGKK 212020Z 33006KT 9999 BKN027 15/11 Q1028
EGKK 211950Z 31005KT 9999 BKN027 15/11 Q1028
EGKK 211920Z VRB01KT 9999 FEW027 12/10 Q1028
EGKK 211850Z VRB02KT CAVOK 12/10 Q1028  
EGKK 211820Z VRB02KT CAVOK 12/09 Q1027  
EGKK 211750Z 22002KT CAVOK 13/10 Q1027  
EGKK 211720Z 27005KT CAVOK 15/09 Q1027  
EGKK 211650Z 26003KT CAVOK 16/10 Q1026  
EGKK 211620Z 25006KT CAVOK 17/10 Q1026  
EGKK 211550Z 25007KT CAVOK 18/10 Q1026  
EGKK 211520Z 24006KT CAVOK 19/10 Q1026  
EGKK 211450Z 23006KT CAVOK 19/10 Q1026  
EGKK 211420Z 24006KT 210V290 CAVOK 19/11 Q1026  
EGKK 211350Z 25006KT CAVOK 19/11 Q1027